Time;durP1;ratioP1;P1;durP2;ratioP2;P2;SDS_P1;SDS_P2;PMS_P1;PMS_P2;Temp;Humidity;BMP_temperature;BMP_pressure;BME280_temperature;BME280_humidity;BME280_pressure;Samples;Min_cycle;Max_cycle;Signal;HPM_P1;HPM_P2
2023/06/01 00:01:24;;;;;;;8.00;3.55;;;;;;;15.31;57.71;97470.19;6176184;23;20377;-80
2023/06/01 00:03:54;;;;;;;10.32;3.95;;;;;;;15.19;57.57;97467.88;6174500;23;20393;-80
2023/06/01 00:06:22;;;;;;;6.95;3.50;;;;;;;15.30;57.42;97469.41;6202846;23;20392;-80
2023/06/01 00:08:56;;;;;;;8.07;3.38;;;;;;;15.20;57.22;97466.00;6175463;23;20440;-80
2023/06/01 00:11:35;;;;;;;6.30;3.42;;;;;;;15.11;58.34;97468.47;6197033;23;20377;-80
2023/06/01 00:14:03;;;;;;;8.90;3.50;;;;;;;15.06;58.04;97466.66;6180238;23;20441;-80
2023/06/01 00:16:32;;;;;;;7.50;3.00;;;;;;;15.14;57.66;97473.25;6180065;23;20461;-80
2023/06/01 00:19:07;;;;;;;6.43;3.60;;;;;;;15.02;58.24;97472.81;6179907;23;20436;-80
2023/06/01 00:21:35;;;;;;;6.55;3.30;;;;;;;15.03;57.77;97475.22;6178595;23;20377;-80
2023/06/01 00:24:02;;;;;;;8.90;3.47;;;;;;;14.88;58.48;97480.63;6177312;23;20456;-80
2023/06/01 00:26:33;;;;;;;8.00;3.70;;;;;;;14.98;57.96;97471.75;6204224;23;20448;-80
2023/06/01 00:29:01;;;;;;;10.10;3.80;;;;;;;15.07;57.76;97470.91;6204022;23;20397;-80
2023/06/01 00:31:28;;;;;;;9.82;3.60;;;;;;;14.97;58.39;97470.97;6203789;23;20392;-80
2023/06/01 00:34:01;;;;;;;6.60;3.30;;;;;;;14.95;59.06;97475.00;6177864;23;20413;-80
2023/06/01 00:36:29;;;;;;;8.35;3.45;;;;;;;14.90;59.68;97467.81;6204098;23;20369;-80
2023/06/01 00:39:01;;;;;;;7.20;3.22;;;;;;;15.01;59.05;97472.03;6176798;23;20393;-80
2023/06/01 00:41:28;;;;;;;8.85;3.50;;;;;;;15.00;58.95;97467.75;6201626;23;20451;-80
2023/06/01 00:43:56;;;;;;;7.60;3.58;;;;;;;14.96;58.39;97466.69;6203089;23;20388;-80
2023/06/01 00:46:23;;;;;;;10.77;3.17;;;;;;;14.94;58.56;97466.19;6177661;23;20404;-80
2023/06/01 00:48:51;;;;;;;11.75;3.83;;;;;;;14.78;59.10;97467.38;6177793;23;20388;-80
2023/06/01 00:51:20;;;;;;;7.30;3.08;;;;;;;14.88;58.72;97472.66;6203086;23;20369;-80
2023/06/01 00:53:49;;;;;;;7.05;3.45;;;;;;;14.82;59.10;97467.59;6176529;23;20397;-80
2023/06/01 00:56:21;;;;;;;7.28;3.22;;;;;;;14.77;58.19;97468.44;6175892;23;20378;-79
2023/06/01 00:58:56;;;;;;;12.35;3.50;;;;;;;14.69;59.12;97469.81;6176952;23;20385;-80
2023/06/01 01:01:25;;;;;;;7.03;3.53;;;;;;;14.76;59.07;97464.16;6175376;23;20389;-81
2023/06/01 01:04:00;;;;;;;7.07;3.53;;;;;;;14.76;58.95;97472.16;6175529;23;20385;-80
2023/06/01 01:06:36;;;;;;;5.45;2.97;;;;;;;14.68;58.26;97457.56;6176142;23;20377;-80
2023/06/01 01:09:18;;;;;;;10.57;3.55;;;;;;;14.61;58.69;97461.59;6175700;23;20461;-80
2023/06/01 01:11:55;;;;;;;9.70;3.40;;;;;;;14.59;58.81;97464.53;6175719;23;20377;-80
2023/06/01 01:14:30;;;;;;;8.35;3.70;;;;;;;14.56;58.46;97462.44;6201384;23;20376;-80
2023/06/01 01:17:07;;;;;;;5.03;3.10;;;;;;;14.56;58.75;97457.09;6200459;23;20377;-80
2023/06/01 01:19:57;;;;;;;8.68;3.83;;;;;;;14.40;59.71;97454.78;6199985;23;20833;-80
2023/06/01 01:22:39;;;;;;;10.15;3.75;;;;;;;14.38;60.15;97457.69;6200766;23;20411;-80
2023/06/01 01:25:25;;;;;;;6.05;3.33;;;;;;;14.41;60.22;97459.84;6175447;23;20481;-80
2023/06/01 01:28:12;;;;;;;6.95;3.47;;;;;;;14.37;60.39;97455.28;6175418;23;20384;-80
2023/06/01 01:30:44;;;;;;;10.65;3.55;;;;;;;14.56;59.33;97462.44;6172746;23;20388;-80
2023/06/01 01:33:11;;;;;;;8.73;3.15;;;;;;;14.51;60.29;97459.78;6169178;23;20392;-80
2023/06/01 01:35:47;;;;;;;8.07;3.53;;;;;;;14.48;59.86;97460.34;6173524;23;20378;-80
2023/06/01 01:38:15;;;;;;;10.02;3.40;;;;;;;14.40;61.19;97460.09;6174087;23;20385;-80
2023/06/01 01:40:42;;;;;;;7.78;3.42;;;;;;;14.32;61.06;97448.91;6173246;23;20385;-80
2023/06/01 01:43:09;;;;;;;10.93;4.18;;;;;;;14.32;61.07;97448.91;6171786;23;20409;-80
2023/06/01 01:45:37;;;;;;;9.80;3.77;;;;;;;14.20;61.19;97451.13;6172902;23;20377;-80
2023/06/01 01:48:22;;;;;;;8.15;3.80;;;;;;;14.15;62.58;97453.78;6170855;23;20377;-80
2023/06/01 01:50:57;;;;;;;7.90;3.50;;;;;;;14.14;62.01;97454.03;6174341;23;20374;-80
2023/06/01 01:53:27;;;;;;;8.45;3.60;;;;;;;14.10;62.81;97450.34;6173866;23;20369;-80
2023/06/01 01:55:59;;;;;;;10.98;3.85;;;;;;;13.98;62.84;97450.66;6198157;23;20373;-80
2023/06/01 01:58:27;;;;;;;10.57;3.78;;;;;;;14.11;61.94;97454.59;6173870;23;20374;-80
2023/06/01 02:00:58;;;;;;;10.85;3.83;;;;;;;14.12;63.32;97448.22;6172065;23;20365;-80
2023/06/01 02:03:26;;;;;;;8.88;3.33;;;;;;;14.06;63.00;97444.75;6171789;23;20480;-80
2023/06/01 02:05:56;;;;;;;11.05;3.38;;;;;;;13.91;63.82;97442.94;6171846;23;20388;-80
2023/06/01 02:08:23;;;;;;;7.97;3.22;;;;;;;13.79;63.28;97442.44;6171992;23;20378;-80
2023/06/01 02:10:51;;;;;;;6.53;3.25;;;;;;;13.92;63.57;97439.22;6171553;23;20381;-80
2023/06/01 02:13:17;;;;;;;8.73;3.58;;;;;;;13.83;63.54;97437.41;6197877;23;20389;-80
2023/06/01 02:15:45;;;;;;;7.07;3.10;;;;;;;13.83;64.78;97440.06;6170351;23;20815;-80
2023/06/01 02:18:17;;;;;;;13.07;3.60;;;;;;;13.77;64.29;97435.78;6197895;23;20427;-80
2023/06/01 02:20:46;;;;;;;7.70;3.50;;;;;;;13.85;64.31;97433.38;6172149;23;20393;-80
2023/06/01 02:23:16;;;;;;;9.85;3.75;;;;;;;13.74;64.04;97431.81;6170927;23;20392;-80
2023/06/01 02:25:44;;;;;;;12.43;3.15;;;;;;;13.68;64.84;97429.44;6172125;23;20437;-80
2023/06/01 02:28:20;;;;;;;10.50;3.75;;;;;;;13.55;64.74;97436.91;6171922;23;20378;-80
2023/06/01 02:30:55;;;;;;;7.63;3.45;;;;;;;13.53;64.92;97428.38;6197100;23;20365;-80
2023/06/01 02:33:24;;;;;;;7.63;3.50;;;;;;;13.57;65.34;97437.44;6172618;23;20403;-80
2023/06/01 02:35:54;;;;;;;8.15;3.97;;;;;;;13.62;65.49;97438.47;6152476;23;20377;-80
2023/06/01 02:38:23;;;;;;;6.38;3.40;;;;;;;13.58;65.14;97435.56;6175819;23;20380;-80
2023/06/01 02:40:51;;;;;;;8.20;4.35;;;;;;;13.54;65.05;97437.16;6175830;23;20412;-80
2023/06/01 02:43:22;;;;;;;8.77;4.00;;;;;;;13.49;65.24;97429.19;6176428;23;20721;-80
2023/06/01 02:45:49;;;;;;;9.40;3.40;;;;;;;13.50;65.48;97426.28;6201724;23;20401;-80
2023/06/01 02:48:17;;;;;;;10.17;3.93;;;;;;;13.38;65.94;97431.06;6176496;23;20416;-80
2023/06/01 02:50:45;;;;;;;6.75;3.97;;;;;;;13.29;66.29;97439.88;6159796;23;20388;-80
2023/06/01 02:53:19;;;;;;;12.52;3.75;;;;;;;13.28;66.86;97441.72;6175023;23;20432;-80
2023/06/01 02:55:46;;;;;;;8.55;3.92;;;;;;;13.33;66.14;97436.41;6174015;23;20472;-80
2023/06/01 02:58:17;;;;;;;8.10;3.75;;;;;;;13.19;67.11;97432.69;6201457;23;20377;-80
2023/06/01 03:00:43;;;;;;;6.93;3.70;;;;;;;13.15;66.77;97437.75;6175066;23;20405;-80
2023/06/01 03:03:16;;;;;;;7.77;3.43;;;;;;;13.07;67.06;97434.78;6176995;23;20382;-80
2023/06/01 03:05:44;;;;;;;6.27;3.60;;;;;;;13.13;67.40;97433.75;6178429;23;20381;-80
2023/06/01 03:08:12;;;;;;;9.82;3.92;;;;;;;13.21;67.08;97432.41;6204961;23;20370;-80
2023/06/01 03:10:40;;;;;;;7.75;3.92;;;;;;;13.09;67.84;97437.94;6204910;23;20384;-80
2023/06/01 03:13:06;;;;;;;7.95;3.72;;;;;;;13.10;67.93;97442.22;6177795;23;20472;-80
2023/06/01 03:15:33;;;;;;;10.18;3.97;;;;;;;13.07;68.05;97445.41;6178512;23;20385;-80
2023/06/01 03:18:01;;;;;;;8.95;3.75;;;;;;;13.16;67.67;97441.97;6179129;23;20377;-80
2023/06/01 03:20:29;;;;;;;6.55;3.30;;;;;;;12.97;68.00;97440.09;6202407;23;20381;-80
2023/06/01 03:22:58;;;;;;;9.52;3.65;;;;;;;13.00;67.79;97443.03;6177218;23;20393;-80
2023/06/01 03:25:25;;;;;;;6.85;3.67;;;;;;;13.06;67.94;97441.16;6177932;23;20385;-80
2023/06/01 03:27:55;;;;;;;8.82;4.00;;;;;;;13.03;69.08;97444.34;6153435;23;20385;-80
2023/06/01 03:30:25;;;;;;;7.90;3.83;;;;;;;13.05;69.58;97450.19;6203230;23;20396;-80
2023/06/01 03:32:55;;;;;;;11.07;4.22;;;;;;;13.10;68.92;97448.31;6205287;23;20370;-80
2023/06/01 03:35:21;;;;;;;7.35;3.63;;;;;;;13.00;68.67;97450.19;6179656;23;20383;-79
2023/06/01 03:37:49;;;;;;;8.20;4.10;;;;;;;12.95;69.20;97458.13;6202886;23;20397;-80
2023/06/01 03:40:17;;;;;;;9.55;3.80;;;;;;;13.02;69.39;97450.72;6204062;23;20382;-80
2023/06/01 03:42:45;;;;;;;9.65;3.70;;;;;;;12.93;69.38;97450.44;6152915;23;20381;-80
2023/06/01 03:45:16;;;;;;;6.68;3.60;;;;;;;12.87;69.85;97448.84;6178596;23;20375;-80
2023/06/01 03:47:43;;;;;;;11.30;3.97;;;;;;;12.97;70.06;97450.72;6177605;23;20381;-79
2023/06/01 03:50:11;;;;;;;6.07;3.60;;;;;;;13.00;70.57;97452.84;6178258;23;20412;-80
2023/06/01 03:52:40;;;;;;;9.30;3.75;;;;;;;12.98;70.62;97449.66;6177966;23;20374;-80
2023/06/01 03:55:13;;;;;;;10.63;4.30;;;;;;;12.99;70.60;97451.25;6177079;23;20385;-80
2023/06/01 03:57:40;;;;;;;7.90;3.75;;;;;;;13.08;71.23;97455.00;6177189;23;20452;-80
2023/06/01 04:00:20;;;;;;;7.07;3.30;;;;;;;13.13;70.73;97447.84;6177517;23;20377;-80
2023/06/01 04:02:52;;;;;;;9.43;4.05;;;;;;;13.02;71.31;97459.47;6203321;23;20527;-80
2023/06/01 04:05:26;;;;;;;5.75;3.40;;;;;;;13.09;72.04;97460.00;6202866;23;20369;-80
2023/06/01 04:07:55;;;;;;;10.05;3.90;;;;;;;13.10;72.90;97463.47;6203041;23;20372;-80
2023/06/01 04:10:24;;;;;;;11.10;3.85;;;;;;;13.07;73.15;97462.16;6203462;23;20376;-80
2023/06/01 04:12:52;;;;;;;11.15;4.03;;;;;;;13.15;73.70;97468.84;6177553;23;20396;-80
2023/06/01 04:15:21;;;;;;;8.15;3.83;;;;;;;13.18;74.06;97466.44;6176138;23;20408;-79
2023/06/01 04:17:53;;;;;;;9.55;3.75;;;;;;;13.19;74.34;97467.22;6174022;23;20382;-80
2023/06/01 04:20:20;;;;;;;7.25;3.47;;;;;;;13.21;75.03;97467.78;6173247;23;20377;-80
2023/06/01 04:22:50;;;;;;;9.88;4.18;;;;;;;13.25;75.04;97466.16;6173490;23;20443;-80
2023/06/01 04:25:17;;;;;;;7.43;3.67;;;;;;;13.27;75.44;97468.56;6173075;23;20381;-80
2023/06/01 04:27:47;;;;;;;7.78;4.07;;;;;;;13.37;74.72;97471.22;6173499;23;20378;-80
2023/06/01 04:30:16;;;;;;;8.15;3.55;;;;;;;13.46;73.76;97466.94;6173026;23;20378;-80
2023/06/01 04:32:47;;;;;;;9.63;3.90;;;;;;;13.43;74.50;97467.50;6198964;23;20393;-80
2023/06/01 04:35:15;;;;;;;11.23;3.88;;;;;;;13.48;74.95;97472.81;6173334;23;20377;-80
2023/06/01 04:37:44;;;;;;;9.48;3.78;;;;;;;13.59;74.33;97471.75;6172803;23;20374;-80
2023/06/01 04:40:13;;;;;;;9.95;3.63;;;;;;;13.68;74.80;97458.72;6173134;23;20381;-80
2023/06/01 04:42:42;;;;;;;8.88;4.05;;;;;;;13.72;75.84;97465.88;6198623;23;20387;-80
2023/06/01 04:45:11;;;;;;;9.03;3.70;;;;;;;13.79;77.02;97462.94;6197467;23;20396;-80
2023/06/01 04:47:39;;;;;;;5.80;3.35;;;;;;;13.97;75.91;97464.22;6171426;23;20381;-80
2023/06/01 04:50:08;;;;;;;6.35;3.47;;;;;;;14.03;78.52;97460.47;6197783;23;20397;-80
2023/06/01 04:52:37;;;;;;;5.38;3.35;;;;;;;14.12;80.51;97464.19;6171198;23;20373;-80
2023/06/01 04:55:06;;;;;;;7.88;3.90;;;;;;;14.22;82.91;97467.59;6170727;23;20385;-80
2023/06/01 04:57:35;;;;;;;9.93;3.90;;;;;;;14.31;82.36;97465.97;6169972;23;20377;-80
2023/06/01 05:00:12;;;;;;;7.10;3.55;;;;;;;14.43;82.89;97480.88;6165463;23;20383;-80
2023/06/01 05:02:41;;;;;;;8.43;3.92;;;;;;;14.56;83.20;97472.28;6192501;23;20381;-80
2023/06/01 05:05:08;;;;;;;6.72;3.47;;;;;;;14.68;82.18;97473.53;6169751;23;20420;-80
2023/06/01 05:07:36;;;;;;;10.32;4.13;;;;;;;14.81;83.76;97471.34;6195237;23;20361;-80
2023/06/01 05:10:05;;;;;;;9.27;3.58;;;;;;;14.93;81.25;97469.94;6168995;23;20385;-80
2023/06/01 05:12:33;;;;;;;7.78;3.42;;;;;;;15.07;80.17;97472.78;6170299;23;20407;-80
2023/06/01 05:15:03;;;;;;;7.72;3.67;;;;;;;15.22;82.05;97479.88;6169086;23;20400;-80
2023/06/01 05:17:29;;;;;;;10.52;3.97;;;;;;;15.35;81.39;97476.56;6145974;23;20381;-80
2023/06/01 05:19:58;;;;;;;6.85;3.63;;;;;;;15.47;80.85;97477.81;6194659;23;20449;-80
2023/06/01 05:22:27;;;;;;;7.60;3.25;;;;;;;15.57;79.68;97476.94;6169662;23;20420;-80
2023/06/01 05:25:09;;;;;;;8.38;3.53;;;;;;;15.65;78.78;97483.53;6169822;23;20912;-80
2023/06/01 05:27:38;;;;;;;9.30;3.60;;;;;;;15.76;77.72;97480.50;6170829;23;20853;-81
2023/06/01 05:30:06;;;;;;;8.52;3.72;;;;;;;15.84;77.41;97482.56;6197257;23;20774;-80
2023/06/01 05:32:33;;;;;;;8.80;3.70;;;;;;;15.89;78.43;97476.38;6197252;23;20416;-80
2023/06/01 05:35:04;;;;;;;8.27;3.90;;;;;;;15.95;75.36;97469.88;6174373;23;20481;-78
2023/06/01 05:37:30;;;;;;;7.00;3.37;;;;;;;16.01;73.15;97476.00;6173008;23;20387;-80
2023/06/01 05:40:00;;;;;;;9.18;3.50;;;;;;;16.08;71.25;97479.91;6172548;23;20396;-80
2023/06/01 05:42:27;;;;;;;8.90;3.40;;;;;;;16.15;71.23;97477.69;6173756;23;20777;-80
2023/06/01 05:44:54;;;;;;;8.67;3.60;;;;;;;16.21;71.45;97473.09;6149248;23;20389;-80
2023/06/01 05:47:22;;;;;;;6.57;3.00;;;;;;;16.25;71.08;97474.91;6199749;23;20377;-80
2023/06/01 05:49:50;;;;;;;7.60;3.10;;;;;;;16.30;70.19;97474.06;6173788;23;20388;-80
2023/06/01 05:52:17;;;;;;;9.80;3.45;;;;;;;16.34;69.25;97472.41;6173500;23;20385;-80
2023/06/01 05:54:48;;;;;;;7.60;3.40;;;;;;;16.39;68.66;97483.00;6172536;23;20373;-80
2023/06/01 05:57:17;;;;;;;7.07;3.13;;;;;;;16.42;69.18;97477.09;6174183;23;20385;-80
2023/06/01 05:59:46;;;;;;;7.73;3.23;;;;;;;16.47;68.40;97481.59;6173829;23;20377;-81
2023/06/01 06:02:16;;;;;;;6.63;3.17;;;;;;;16.51;68.44;97479.94;6199456;23;20372;-78
2023/06/01 06:04:44;;;;;;;8.15;3.22;;;;;;;16.55;68.16;97487.09;6149895;23;20377;-79
2023/06/01 06:07:13;;;;;;;6.32;3.28;;;;;;;16.59;68.60;97487.31;6150487;23;20380;-80
2023/06/01 06:09:39;;;;;;;7.60;3.35;;;;;;;16.61;69.74;97485.97;6200420;23;20405;-80
2023/06/01 06:12:07;;;;;;;7.18;2.95;;;;;;;16.64;69.54;97501.44;6173815;23;20385;-80
2023/06/01 06:14:36;;;;;;;13.38;3.28;;;;;;;16.72;69.24;97500.00;6175452;23;20392;-79
2023/06/01 06:17:03;;;;;;;7.57;3.28;;;;;;;16.74;68.13;97487.16;6174716;23;20385;-80
2023/06/01 06:19:30;;;;;;;11.05;3.70;;;;;;;16.80;67.42;97493.22;6198787;23;20373;-80
2023/06/01 06:21:58;;;;;;;7.70;3.22;;;;;;;16.85;68.34;97493.94;6173465;23;20404;-80
2023/06/01 06:24:26;;;;;;;9.52;3.22;;;;;;;16.91;67.92;97489.34;6173895;23;20774;-81
2023/06/01 06:27:03;;;;;;;10.70;4.03;;;;;;;16.97;66.48;97497.00;6173212;23;20383;-80
2023/06/01 06:29:32;;;;;;;8.88;3.28;;;;;;;17.02;66.64;97488.09;6172776;23;20427;-80
2023/06/01 06:32:03;;;;;;;10.95;3.90;;;;;;;17.07;66.15;97492.56;6173848;23;20396;-80
2023/06/01 06:34:36;;;;;;;12.43;3.45;;;;;;;17.11;66.30;97491.72;6197846;23;20405;-80
2023/06/01 06:37:06;;;;;;;8.38;3.25;;;;;;;17.18;66.04;97492.16;6196435;23;20370;-80
2023/06/01 06:39:33;;;;;;;10.07;3.70;;;;;;;17.25;66.19;97497.13;6171363;23;20382;-79
2023/06/01 06:42:03;;;;;;;18.02;3.60;;;;;;;17.29;66.47;97488.22;6171566;23;20464;-80
2023/06/01 06:44:31;;;;;;;37.05;4.40;;;;;;;17.34;66.37;97490.81;6197460;23;20453;-80
2023/06/01 06:47:00;;;;;;;8.00;3.50;;;;;;;17.39;64.94;97497.97;6169402;23;20389;-80
2023/06/01 06:49:29;;;;;;;16.17;4.00;;;;;;;17.45;64.30;97501.34;6197021;23;20370;-80
2023/06/01 06:51:56;;;;;;;11.00;3.43;;;;;;;17.52;63.68;97491.06;6195818;23;20393;-80
2023/06/01 06:54:23;;;;;;;10.93;3.60;;;;;;;17.62;63.13;97494.41;6196503;23;20369;-81
2023/06/01 06:56:51;;;;;;;8.63;3.75;;;;;;;17.64;62.02;97494.13;6196734;23;20373;-80
2023/06/01 06:59:20;;;;;;;8.05;3.78;;;;;;;17.67;62.61;97499.66;6169974;23;20370;-80
2023/06/01 07:01:50;;;;;;;12.05;4.10;;;;;;;17.71;63.23;97499.88;6169761;23;20745;-80
2023/06/01 07:04:17;;;;;;;10.15;3.75;;;;;;;17.77;63.06;97496.03;6200282;23;20435;-80
2023/06/01 07:06:48;;;;;;;13.23;4.00;;;;;;;17.81;62.39;97498.94;6198872;23;20413;-80
2023/06/01 07:09:15;;;;;;;9.35;4.00;;;;;;;17.93;60.65;97500.03;6173737;23;20460;-80
2023/06/01 07:11:42;;;;;;;13.07;3.95;;;;;;;17.94;60.28;97496.28;6199637;23;20376;-79
2023/06/01 07:14:10;;;;;;;9.83;3.93;;;;;;;17.97;60.82;97498.34;6200728;23;20464;-80
2023/06/01 07:16:41;;;;;;;9.65;3.97;;;;;;;18.07;60.77;97494.69;6198397;23;20408;-80
2023/06/01 07:19:10;;;;;;;10.52;3.95;;;;;;;18.13;60.68;97496.97;6173437;23;20377;-79
2023/06/01 07:21:38;;;;;;;16.10;4.22;;;;;;;18.22;60.08;97496.28;6171944;23;20433;-79
2023/06/01 07:24:08;;;;;;;18.58;4.90;;;;;;;18.28;60.37;97493.22;6173420;23;20465;-79
2023/06/01 07:26:38;;;;;;;17.42;3.95;;;;;;;18.37;59.87;97487.94;6198651;23;20503;-79
2023/06/01 07:29:06;;;;;;;15.95;4.47;;;;;;;18.41;60.21;97489.75;6172901;23;20381;-79
2023/06/01 07:31:39;;;;;;;10.48;3.78;;;;;;;18.45;59.67;97489.94;6171080;23;20901;-79
2023/06/01 07:34:09;;;;;;;11.73;4.32;;;;;;;18.51;59.81;97491.41;6172530;23;20378;-79
2023/06/01 07:36:37;;;;;;;18.23;4.17;;;;;;;18.59;59.43;97487.28;6198358;23;20442;-79
2023/06/01 07:39:08;;;;;;;98.68;7.97;;;;;;;18.64;59.88;97485.31;6198431;23;20409;-79
2023/06/01 07:41:39;;;;;;;19.80;4.88;;;;;;;18.72;59.64;97491.84;6171196;23;20378;-79
2023/06/01 07:44:07;;;;;;;17.75;4.53;;;;;;;18.80;60.05;97497.25;6197183;23;20393;-79
2023/06/01 07:46:35;;;;;;;16.52;4.38;;;;;;;18.91;58.07;97492.50;6196933;23;20384;-79
2023/06/01 07:49:01;;;;;;;14.45;4.25;;;;;;;18.92;59.31;97497.56;6170807;23;20377;-79
2023/06/01 07:51:28;;;;;;;11.10;4.20;;;;;;;19.04;59.15;97490.84;6169298;23;20386;-79
2023/06/01 07:53:57;;;;;;;11.98;4.35;;;;;;;19.10;59.33;97489.63;6195719;23;20369;-79
2023/06/01 07:56:26;;;;;;;19.33;4.82;;;;;;;19.21;59.78;97496.38;6169882;23;20461;-79
2023/06/01 07:58:55;;;;;;;8.80;4.00;;;;;;;19.31;59.22;97493.47;6195073;23;20400;-80
2023/06/01 08:01:22;;;;;;;9.35;4.03;;;;;;;19.40;59.57;97488.94;6195675;23;20384;-79
2023/06/01 08:03:51;;;;;;;11.82;4.50;;;;;;;19.52;57.92;97489.22;6193202;23;20381;-79
2023/06/01 08:06:17;;;;;;;7.13;4.00;;;;;;;19.62;59.25;97490.88;6168045;23;20373;-79
2023/06/01 08:08:45;;;;;;;12.23;4.22;;;;;;;19.73;58.88;97489.50;6165879;23;20416;-79
2023/06/01 08:11:13;;;;;;;11.23;4.90;;;;;;;19.88;58.34;97489.09;6167116;23;20385;-79
2023/06/01 08:13:45;;;;;;;14.65;4.05;;;;;;;20.02;57.18;97489.00;6167181;23;20710;-79
2023/06/01 08:16:13;;;;;;;11.38;4.28;;;;;;;20.19;55.38;97491.78;6193719;23;20439;-78
2023/06/01 08:18:39;;;;;;;14.65;4.35;;;;;;;20.32;57.61;97487.41;6189856;23;20412;-79
2023/06/01 08:21:09;;;;;;;12.85;4.10;;;;;;;20.43;56.86;97484.16;6138057;23;20857;-79
2023/06/01 08:23:35;;;;;;;379.40;31.57;;;;;;;20.57;56.85;97477.84;6192088;23;20386;-79
2023/06/01 08:26:05;;;;;;;31.73;6.07;;;;;;;20.68;57.26;97485.31;6140884;23;20452;-79
2023/06/01 08:28:37;;;;;;;14.48;4.47;;;;;;;20.82;56.03;97487.88;6167507;23;20871;-79
2023/06/01 08:31:06;;;;;;;13.23;4.55;;;;;;;20.99;54.34;97476.31;6167912;23;20378;-80
2023/06/01 08:33:37;;;;;;;9.73;4.13;;;;;;;21.04;52.55;97474.28;6194740;23;20366;-79
2023/06/01 08:36:03;;;;;;;11.98;3.67;;;;;;;21.10;54.71;97472.22;6166944;23;20435;-80
2023/06/01 08:38:32;;;;;;;9.40;3.88;;;;;;;21.20;55.50;97470.03;6194253;23;20437;-80
2023/06/01 08:41:04;;;;;;;11.13;4.20;;;;;;;21.35;52.97;97467.97;6167657;23;20385;-80
2023/06/01 08:43:39;;;;;;;9.27;4.13;;;;;;;21.50;54.37;97470.19;6168546;23;20392;-79
2023/06/01 08:46:07;;;;;;;26.10;4.70;;;;;;;21.65;54.22;97474.28;6194987;23;20384;-79
2023/06/01 08:48:37;;;;;;;13.35;4.22;;;;;;;21.71;50.77;97467.59;6193130;23;20699;-79
2023/06/01 08:51:06;;;;;;;12.07;4.13;;;;;;;21.81;51.83;97475.31;6195120;23;20370;-79
2023/06/01 08:53:35;;;;;;;12.85;4.68;;;;;;;21.87;50.21;97471.38;6168737;23;20361;-79
2023/06/01 08:56:04;;;;;;;9.35;4.07;;;;;;;21.96;50.46;97466.72;6196026;23;20374;-80
2023/06/01 08:58:33;;;;;;;14.15;4.03;;;;;;;22.06;51.82;97471.00;6170240;23;20369;-79
2023/06/01 09:01:01;;;;;;;14.45;4.22;;;;;;;22.19;52.59;97462.69;6195564;23;20365;-79
2023/06/01 09:03:29;;;;;;;10.35;4.07;;;;;;;22.37;52.61;97464.19;6168107;23;20385;-80
2023/06/01 09:05:57;;;;;;;11.40;4.53;;;;;;;22.40;47.66;97457.38;6169263;23;20500;-80
2023/06/01 09:08:25;;;;;;;10.10;4.37;;;;;;;22.50;50.58;97464.28;6196553;23;20714;-80
2023/06/01 09:10:52;;;;;;;10.55;4.38;;;;;;;22.61;50.63;97457.41;6196518;23;20380;-80
2023/06/01 09:13:31;;;;;;;11.07;4.13;;;;;;;22.77;51.60;97461.16;6196521;23;20369;-80
2023/06/01 09:15:58;;;;;;;12.57;4.40;;;;;;;22.92;51.15;97465.97;6169999;23;20384;-79
2023/06/01 09:18:24;;;;;;;12.05;4.15;;;;;;;22.99;47.31;97466.22;6197251;23;20472;-79
2023/06/01 09:20:53;;;;;;;11.48;4.30;;;;;;;23.12;48.61;97467.88;6169611;23;20489;-80
2023/06/01 09:23:25;;;;;;;10.98;4.15;;;;;;;23.26;47.52;97464.88;6145308;23;20443;-80
2023/06/01 09:26:10;;;;;;;9.57;4.32;;;;;;;23.34;47.49;97463.22;6197298;23;20472;-80
2023/06/01 09:28:55;;;;;;;11.43;4.50;;;;;;;23.47;48.45;97460.25;6168056;23;20369;-80
2023/06/01 09:31:42;;;;;;;15.00;4.22;;;;;;;23.66;48.20;97467.88;6168496;23;20420;-78
2023/06/01 09:34:11;;;;;;;11.95;4.45;;;;;;;23.67;46.30;97460.56;6193543;23;20385;-79
2023/06/01 09:36:40;;;;;;;11.82;4.60;;;;;;;23.88;45.62;97458.59;6146485;23;20377;-79
2023/06/01 09:39:09;;;;;;;10.52;4.97;;;;;;;23.96;44.36;97451.50;6197374;23;20365;-79
2023/06/01 09:41:53;;;;;;;15.10;4.33;;;;;;;24.04;47.74;97459.50;6195174;23;20468;-78
2023/06/01 09:44:26;;;;;;;12.82;4.82;;;;;;;24.11;45.21;97457.03;6166310;23;20413;-80
2023/06/01 09:46:54;;;;;;;13.65;5.00;;;;;;;24.23;44.69;97450.88;6168761;23;20381;-80
2023/06/01 09:49:24;;;;;;;11.20;4.40;;;;;;;24.38;46.41;97454.81;6168488;23;20445;-80
2023/06/01 09:51:51;;;;;;;9.98;4.75;;;;;;;24.51;46.66;97451.75;6169075;23;20373;-80
2023/06/01 09:54:31;;;;;;;13.55;4.72;;;;;;;24.68;47.18;97443.38;6193589;23;20370;-79
2023/06/01 09:56:58;;;;;;;9.18;4.32;;;;;;;24.86;46.21;97440.44;6196844;23;20384;-80
2023/06/01 09:59:30;;;;;;;9.95;4.18;;;;;;;25.05;45.95;97440.63;6195159;23;20499;-80
2023/06/01 10:01:59;;;;;;;8.52;4.55;;;;;;;25.24;45.30;97435.38;6170567;23;20385;-79
2023/06/01 10:04:27;;;;;;;11.30;4.47;;;;;;;25.47;46.12;97438.31;6171064;23;20721;-80
2023/06/01 10:06:55;;;;;;;8.77;4.70;;;;;;;25.77;45.24;97434.13;6196627;23;20374;-80
2023/06/01 10:09:24;;;;;;;11.88;4.72;;;;;;;26.12;44.12;97438.84;6170910;23;20388;-80
2023/06/01 10:11:54;;;;;;;12.15;4.93;;;;;;;26.42;43.04;97439.19;6171195;23;20381;-80
2023/06/01 10:14:23;;;;;;;11.50;4.97;;;;;;;26.64;42.44;97430.41;6196334;23;20441;-79
2023/06/01 10:16:53;;;;;;;12.75;5.03;;;;;;;26.98;42.18;97433.47;6198089;23;20373;-80
2023/06/01 10:19:22;;;;;;;11.10;4.63;;;;;;;27.34;41.03;97427.63;6176924;23;20369;-79
2023/06/01 10:21:51;;;;;;;9.85;4.40;;;;;;;27.52;35.94;97428.72;6179201;23;20381;-80
2023/06/01 10:24:18;;;;;;;13.07;4.60;;;;;;;27.66;35.67;97418.16;6201159;23;20408;-79
2023/06/01 10:26:52;;;;;;;12.40;5.30;;;;;;;27.82;36.32;97425.41;6177040;23;20377;-80
2023/06/01 10:29:24;;;;;;;10.25;4.30;;;;;;;27.80;35.61;97416.81;6179919;23;20705;-80
2023/06/01 10:31:51;;;;;;;13.05;4.15;;;;;;;27.87;38.21;97415.00;6202245;23;20373;-80
2023/06/01 10:34:44;;;;;;;12.65;3.97;;;;;;;28.05;37.46;97424.25;6203941;23;20442;-79
2023/06/01 10:37:20;;;;;;;8.43;4.20;;;;;;;28.19;37.44;97417.50;6201772;23;20400;-78
2023/06/01 10:39:48;;;;;;;11.38;3.88;;;;;;;28.48;35.71;97414.84;6178050;23;20468;-80
2023/06/01 10:42:38;;;;;;;8.52;4.10;;;;;;;28.42;33.87;97407.31;6177581;23;20479;-80
2023/06/01 10:45:08;;;;;;;10.93;4.30;;;;;;;28.39;34.38;97403.41;6177260;23;20404;-80
2023/06/01 10:47:49;;;;;;;8.07;4.47;;;;;;;28.37;34.75;97408.44;6176062;23;20424;-79
2023/06/01 10:50:19;;;;;;;12.25;4.38;;;;;;;28.40;35.10;97413.16;6177269;23;20384;-80
2023/06/01 10:52:47;;;;;;;10.75;4.20;;;;;;;28.39;35.05;97411.59;6202436;23;20365;-80
2023/06/01 10:55:28;;;;;;;11.70;4.70;;;;;;;28.03;32.29;97399.34;6179549;23;20389;-79
2023/06/01 10:58:21;;;;;;;9.35;4.28;;;;;;;28.05;32.67;97398.97;6203565;23;20385;-80
2023/06/01 11:00:54;;;;;;;9.48;4.25;;;;;;;27.83;33.86;97392.38;6178378;23;20365;-79
2023/06/01 11:03:43;;;;;;;8.43;4.32;;;;;;;28.01;34.51;97398.91;6178149;23;20385;-80
2023/06/01 11:06:26;;;;;;;10.95;4.10;;;;;;;28.14;34.77;97388.59;6177351;23;20377;-79
2023/06/01 11:09:01;;;;;;;12.18;4.22;;;;;;;28.31;32.97;97390.84;6201907;23;20377;-80
2023/06/01 11:11:57;;;;;;;10.87;4.80;;;;;;;28.39;31.65;97389.03;6203732;23;20420;-79
2023/06/01 11:14:29;;;;;;;7.63;4.18;;;;;;;28.57;33.04;97381.88;6178207;23;20863;-80
2023/06/01 11:17:29;;;;;;;16.20;4.90;;;;;;;28.71;33.69;97382.09;6181035;23;20361;-79
2023/06/01 11:20:11;;;;;;;9.70;4.53;;;;;;;28.96;33.13;97378.88;6203155;23;20381;-80
2023/06/01 11:22:40;;;;;;;9.30;4.57;;;;;;;28.80;30.62;97379.88;6202638;23;20365;-79
2023/06/01 11:25:08;;;;;;;13.17;4.20;;;;;;;28.94;32.11;97392.13;6203361;23;20376;-79
2023/06/01 11:27:42;;;;;;;9.63;4.70;;;;;;;28.98;31.63;97384.75;6199037;23;20396;-79
2023/06/01 11:30:10;;;;;;;10.93;4.25;;;;;;;29.09;32.41;97382.97;6176312;23;20374;-80
2023/06/01 11:32:48;;;;;;;7.90;3.97;;;;;;;29.15;30.91;97384.97;6200981;23;20380;-79
2023/06/01 11:35:21;;;;;;;14.20;4.30;;;;;;;29.31;33.38;97382.03;6175437;23;20389;-80
2023/06/01 11:37:55;;;;;;;12.20;4.07;;;;;;;29.66;30.36;97376.16;6151468;23;20400;-80
2023/06/01 11:40:25;;;;;;;10.10;4.45;;;;;;;29.31;28.59;97368.41;6205600;23;20370;-78
2023/06/01 11:42:53;;;;;;;10.70;4.70;;;;;;;29.34;28.31;97366.84;6207091;23;20983;-80
2023/06/01 11:45:21;;;;;;;10.40;4.97;;;;;;;29.26;29.92;97357.81;6182976;23;20393;-80